Latest Coastal Weather Observations for Samuel Hill

IDQ60701

Issued at 8:21 am EST Wednesday 2 September 2015 (issued every 10 minutes, with the page automatically refreshed every 10 minutes)

About coastal observations | Map of coastal stations | Coastal observations for QLD | Marine services | Other Formats
Station Details ID: 033308 Name: SAMUEL HILL AERO Lat: -22.74 Lon: 150.66 Height: 31.0 m
Data from the previous 72 hours. | See also: Recent months at Samuel Hill
Date/Time
EST
Temp

°C
Wind Pressure Rain
since 9am
mm
Weather Cloud Vis
km
Sea
Height
m
Swell
Dir
 
Speed
knots
Gust
knots
hPa Trend Height
m
Period
s
Dir
02/08:00am 18.6 CALM 0 0 1019.5 - - - - 10 - - - -
02/07:30am 15.2 CALM 0 0 1019.2 - - - - 10 - - - -
02/07:00am 12.3 CALM 0 0 1018.9 - - - - 10 - - - -
02/03:00am 10.7 CALM 0 0 1017.4 - - - - 10 - - - -
02/02:30am 10.7 CALM 0 0 1017.6 - - - - 10 - - - -
02/02:00am 10.9 CALM 0 0 1017.7 - - - - 10 - - - -
02/01:30am 10.6 CALM 0 0 1017.5 - - - - 10 - - - -
02/01:00am 11.0 CALM 0 0 1017.5 - - - - 10 - - - -
02/12:30am 11.1 CALM 0 0 1017.5 - - - - 10 - - - -
02/12:00am 11.1 CALM 0 0 1017.6 - - - - 10 - - - -
 
Date/Time
EST
Temp

°C
Wind Pressure Rain
since 9am
mm
Weather Cloud Vis
km
Sea
Height
m
Swell
Dir
 
Speed
knots
Gust
knots
hPa Trend Height
m
Period
s
Dir
01/09:00pm 12.9 CALM 0 0 1017.3 - 0.0 - - 10 - - - -
01/08:30pm 13.0 SW 2 4 1017.0 - 0.0 - - 10 - - - -
01/08:00pm 14.0 SW 2 4 1016.8 - 0.0 - - 10 - - - -
01/07:30pm 14.4 CALM 0 0 1016.6 - 0.0 - - 10 - - - -
01/07:00pm 15.0 CALM 0 0 1016.2 - 0.0 - - 10 - - - -
01/06:30pm 16.8 NNE 1 3 1015.8 - 0.0 - - 10 - - - -
01/06:00pm 18.3 NE 4 5 1015.6 - 0.0 - - 10 - - - -
01/05:30pm 19.7 NE 6 9 1015.4 - 0.0 - - 10 - - - -
01/05:00pm 20.7 NE 7 10 1015.1 - 0.0 - - 10 - - - -
01/04:30pm 21.6 NE 9 13 1014.9 - 0.0 - - 10 - - - -
01/04:00pm 22.4 NE 8 11 1014.6 - 0.0 - - 10 - - - -
01/03:30pm 22.9 NE 8 11 1014.7 - 0.0 - - 10 - - - -
01/03:00pm 23.3 E 9 13 1014.9 - 0.0 - - 10 - - - -
01/02:30pm 23.4 E 10 14 1015.1 - 0.0 - - 10 - - - -
01/02:00pm 23.4 ENE 7 12 1015.6 - 0.0 - - 10 - - - -
01/01:30pm 21.9 E 7 11 1016.1 - 0.0 - Partly cloudy 10 - - - -
01/01:00pm 22.6 SE 7 11 1016.5 - 0.0 - Partly cloudy 10 - - - -
01/12:30pm 23.8 ESE 6 10 1016.9 - 0.0 - Partly cloudy 10 - - - -
01/12:00pm 23.8 ENE 6 9 1017.4 - 0.0 - - 10 - - - -
01/11:30am 23.2 NNW 5 8 1018.0 - 0.0 - - 10 - - - -
01/11:00am 23.1 SSE 4 9 1018.4 - 0.0 - - 10 - - - -
01/10:30am 21.9 SW 4 7 1019.1 - 0.0 - - 10 - - - -
01/10:00am 21.4 SE 4 9 1019.4 - 0.0 - - 10 - - - -
01/09:30am 20.9 SE 5 7 1019.6 - 0.0 - - 10 - - - -
01/09:00am 19.8 SSE 5 6 1019.7 - 0.0 - - 10 - - - -
01/08:30am 17.3 S 3 5 1019.6 - 0.0 - - 10 - - - -
01/08:00am 15.1 SSE 4 5 1019.4 - 0.0 - - 10 - - - -
01/07:30am 12.2 SW 1 3 1019.0 - 0.0 - - 10 - - - -
01/07:00am 10.1 CALM 0 3 1018.5 - 0.0 - - 10 - - - -
01/06:30am 8.3 CALM 0 0 1018.3 - 0.0 - - 10 - - - -
01/06:00am 7.6 CALM 0 0 1017.7 - 0.0 - - 10 - - - -
01/05:30am 7.8 CALM 0 0 1017.2 - 0.0 - - 10 - - - -
01/05:00am 7.8 CALM 0 0 1016.9 - 0.0 - - 10 - - - -
01/04:30am 8.4 SW 4 5 1016.6 - 0.0 - - 10 - - - -
01/04:00am 8.5 W 3 5 1016.5 - 0.0 - - 10 - - - -
01/03:30am 8.5 CALM 0 0 1016.5 - 0.0 - - 10 - - - -
01/03:00am 8.5 CALM 0 3 1016.5 - 0.0 - - 10 - - - -
01/02:30am 8.8 CALM 0 0 1016.5 - 0.0 - - 10 - - - -
01/02:00am 9.0 CALM 0 0 1016.6 - 0.0 - - 10 - - - -
01/01:30am 9.3 CALM 0 0 1016.7 - 0.0 - - 10 - - - -
01/01:00am 9.4 CALM 0 0 1016.9 - 0.0 - - 10 - - - -
01/12:30am 9.5 CALM 0 0 1016.8 - 0.0 - - 10 - - - -
01/12:00am 9.8 CALM 0 0 1017.0 - 0.0 - - 10 - - - -
 
Date/Time
EST
Temp

°C
Wind Pressure Rain
since 9am
mm
Weather Cloud Vis
km
Sea
Height
m
Swell
Dir
 
Speed
knots
Gust
knots
hPa Trend Height
m
Period
s
Dir
31/11:30pm 10.1 CALM 0 0 1017.0 - 0.0 - - 10 - - - -
31/11:00pm 10.4 CALM 0 0 1017.0 - 0.0 - - 10 - - - -
31/10:30pm 10.5 CALM 0 0 1017.0 - 0.0 - - 10 - - - -
31/10:00pm 11.1 CALM 0 0 1017.0 - 0.0 - - 10 - - - -
31/09:30pm 11.7 CALM 0 0 1017.0 - 0.0 - - 10 - - - -
31/09:00pm 11.8 CALM 0 0 1017.0 - 0.0 - - 10 - - - -
31/08:30pm 12.4 CALM 0 0 1016.7 - 0.0 - - 10 - - - -
31/08:00pm 12.8 CALM 0 0 1016.5 - 0.0 - - 10 - - - -
31/07:30pm 13.8 CALM 0 0 1016.4 - 0.0 - - 10 - - - -
31/07:00pm 14.6 CALM 0 2 1015.9 - 0.0 - - 10 - - - -
31/06:30pm 16.3 CALM 0 0 1015.4 - 0.0 - - 10 - - - -
31/06:00pm 17.9 NE 4 5 1015.1 - 0.0 - - 10 - - - -
31/05:30pm 19.4 NE 5 7 1014.7 - 0.0 - - 10 - - - -
31/05:00pm 20.4 NNE 7 10 1014.4 - 0.0 - - 10 - - - -
31/04:30pm 21.3 NNE 7 10 1014.2 - 0.0 - - 10 - - - -
31/04:00pm 21.8 NNE 7 11 1014.0 - 0.0 - - 10 - - - -
31/03:30pm 22.1 NNE 8 12 1013.8 - 0.0 - - 10 - - - -
31/03:00pm 22.9 NE 8 11 1013.9 - 0.0 - - 10 - - - -
31/02:30pm 22.8 W 7 13 1014.4 - 0.0 - - 10 - - - -
31/02:00pm 24.2 SW 8 12 1014.7 - 0.0 - - 10 - - - -
31/01:30pm 24.3 SSW 6 9 1015.0 - 0.0 - - 10 - - - -
31/01:00pm 23.6 SW 8 14 1015.7 - 0.0 - - 10 - - - -
31/12:30pm 23.0 WSW 7 12 1016.2 - 0.0 - - 10 - - - -
31/12:00pm 22.7 SW 5 7 1016.6 - 0.0 - - 10 - - - -
31/11:30am 21.5 SE 6 11 1017.0 - 0.0 - - 10 - - - -
31/11:00am 20.9 SE 6 10 1017.5 - 0.0 - - 10 - - - -
31/10:30am 21.4 SE 7 11 1018.1 - 0.0 - - 10 - - - -
31/10:00am 20.9 SE 7 11 1018.7 - 0.0 - - 10 - - - -
31/09:30am 19.6 SSE 8 12 1018.9 - 0.0 - - 10 - - - -
31/09:00am 19.1 SE 6 9 1018.9 - 0.4 - - 10 - - - -
31/08:30am 18.0 SSE 5 6 1018.8 - 0.4 - - 10 - - - -
31/08:00am 15.8 S 3 6 1018.4 - 0.4 - - 10 - - - -
31/07:30am 13.6 WSW 3 4 1018.1 - 0.4 - - 10 - - - -
31/07:00am 11.2 CALM 0 0 1017.4 - 0.4 - - 10 - - - -
31/06:30am 9.2 W 2 3 1017.1 - 0.2 - - 10 - - - -
31/06:00am 8.8 W 2 4 1016.7 - 0.2 - - 10 - - - -
31/05:30am 9.7 WSW 1 3 1016.4 - 0.2 - - 10 - - - -
31/05:00am 10.0 CALM 0 0 1016.2 - 0.2 - - 10 - - - -
31/04:30am 12.5 S 5 6 1016.0 - 0.2 - - 10 - - - -
31/04:00am 12.9 SSE 6 7 1016.1 - 0.2 - - 10 - - - -
31/03:30am 11.5 SSE 5 6 1016.2 - 0.2 - - 10 - - - -
31/03:00am 11.0 SE 5 6 1016.3 - 0.2 - - 10 - - - -
31/02:30am 11.7 CALM 0 0 1016.4 - 0.2 - - 10 - - - -
31/02:01am 11.9 CALM 0 0 1016.4 - 0.2 - - 10 - - - -
31/02:00am 12.0 CALM 0 0 1016.4 - 0.2 - - 10 - - - -
31/01:40am 12.3 SW 2 4 1016.5 - 0.2 - Partly cloudy 2 - - - -
31/01:30am 12.3 SSE 4 6 1016.4 - 0.2 - Partly cloudy 2 - - - -
31/01:00am 13.2 CALM 0 0 1016.8 - 0.2 - Cloudy 0.1 - - - -
31/12:30am 12.9 SW 2 4 1016.9 - 0.2 - Cloudy 0.1 - - - -
31/12:00am 13.2 CALM 0 0 1016.8 - 0.2 - Mostly cloudy 0.5 - - - -
 
Date/Time
EST
Temp

°C
Wind Pressure Rain
since 9am
mm
Weather Cloud Vis
km
Sea
Height
m
Swell
Dir
 
Speed
knots
Gust
knots
hPa Trend Height
m
Period
s
Dir
30/11:30pm 12.7 CALM 0 0 1017.0 - 0.2 - Partly cloudy 3 - - - -
30/11:04pm 12.9 CALM 0 0 1017.1 - 0.2 - Partly cloudy 0.7 - - - -
30/11:00pm 12.8 CALM 0 0 1017.1 - 0.2 - Partly cloudy 2 - - - -
30/10:57pm 12.8 CALM 0 0 1017.1 - 0.2 - Partly cloudy 7 - - - -
30/10:30pm 13.3 CALM 0 0 1017.1 - 0.2 - - 10 - - - -
30/10:10pm 13.9 CALM 0 0 1017.1 - 0.0 - - 8 - - - -
30/10:00pm 14.2 CALM 0 0 1017.0 - 0.0 - - 7 - - - -
30/09:37pm 13.9 N 1 5 1017.1 - 0.0 - - 7 - - - -
30/09:30pm 14.1 NW 1 4 1017.0 - 0.0 - - 10 - - - -
30/09:11pm 14.9 CALM 0 0 1016.8 - 0.0 - - 8 - - - -
30/09:00pm 14.5 CALM 0 0 1016.8 - 0.0 - - 7 - - - -
30/08:53pm 14.4 CALM 0 0 1016.8 - 0.0 - - 7 - - - -
30/08:30pm 15.8 NW 3 3 1016.5 - 0.0 - - 10 - - - -
30/08:00pm 15.5 CALM 0 0 1016.2 - 0.0 - - 10 - - - -
30/07:30pm 16.7 CALM 0 1 1015.8 - 0.0 - - 10 - - - -
30/07:00pm 17.6 SSE 4 5 1015.4 - 0.0 - - 10 - - - -
30/06:30pm 18.6 SE 2 4 1015.1 - 0.0 - - 10 - - - -
30/06:00pm 20.2 ESE 3 4 1014.8 - 0.0 - - 10 - - - -
30/05:30pm 22.1 S 3 5 1014.7 - 0.0 - - 10 - - - -
30/05:00pm 23.4 WSW 5 7 1014.2 - 0.0 - - 10 - - - -
30/04:30pm 23.5 SW 6 8 1014.2 - 0.0 - - 10 - - - -
30/04:00pm 23.3 SSE 4 6 1014.2 - 0.0 - - 10 - - - -
30/03:30pm 23.1 SSE 4 6 1014.4 - 0.0 - Partly cloudy 10 - - - -
30/03:00pm 22.0 SE 5 6 1014.7 - 0.0 - Cloudy 10 - - - -
30/02:30pm 21.7 ENE 6 7 1015.0 - 0.0 - Partly cloudy 10 - - - -
30/02:00pm 22.0 E 5 7 1015.2 - 0.0 - Partly cloudy 10 - - - -
30/01:30pm 22.8 ESE 4 6 1015.5 - 0.0 - Partly cloudy 10 - - - -
30/01:00pm 22.2 S 6 8 1015.8 - 0.0 - Partly cloudy 10 - - - -
30/12:30pm 22.2 SSW 6 9 1016.3 - 0.0 - Partly cloudy 10 - - - -
30/12:00pm 21.5 WSW 5 7 1016.9 - 0.0 - Cloudy 10 - - - -
30/11:30am 22.7 NE 4 7 1017.3 - 0.0 - Partly cloudy 10 - - - -
30/11:00am 22.3 N 4 6 1017.6 - 0.0 - Partly cloudy 10 - - - -
30/10:56am 22.3 N 4 6 1017.7 - 0.0 - Partly cloudy 10 - - - -
30/10:30am 21.7 E 1 4 1018.1 - 0.0 - Partly cloudy 10 - - - -
30/10:00am 19.9 S 3 5 1018.3 - 0.0 - Partly cloudy 10 - - - -
30/09:30am 19.1 ESE 4 6 1018.1 - 0.0 - Cloudy 10 - - - -
30/09:00am 18.2 SE 4 7 1018.0 - 8.8 Recent precip. Mostly cloudy 10 - - - -
30/08:43am 17.9 SSE 4 6 1018.2 - 8.8 - Partly cloudy 10 - - - -
30/08:41am 17.9 SSE 4 6 1018.2 - 8.8 - Partly cloudy 10 - - - -
30/08:30am 17.8 ESE 3 6 1018.1 - 8.8 - Partly cloudy 5 - - - -

Other Formats:

Comma delimited format used in spreadsheet applications
http://www.bom.gov.au/fwo/IDQ60701/IDQ60701.94370.axf

JavaScript Object Notation format (JSON) in row-major order
http://www.bom.gov.au/fwo/IDQ60701/IDQ60701.94370.json